Time;durP1;ratioP1;P1;durP2;ratioP2;P2;SDS_P1;SDS_P2;PMS_P1;PMS_P2;Temp;Humidity;BMP_temperature;BMP_pressure;BME280_temperature;BME280_humidity;BME280_pressure;Samples;Min_cycle;Max_cycle;Signal;HPM_P1;HPM_P2
2023/08/24 00:02:12;;;;;;;3.25;2.13;;;;;;;21.81;79.85;101748.56;6260988;28;20238;-68
2023/08/24 00:05:36;;;;;;;6.13;2.67;;;;;;;21.79;80.03;101747.88;6259114;28;20262;-69
2023/08/24 00:08:57;;;;;;;1.40;1.30;;;;;;;21.73;79.82;101755.00;6261476;28;20227;-68
2023/08/24 00:12:18;;;;;;;4.93;2.70;;;;;;;21.77;80.33;101764.56;6259078;28;20250;-68
2023/08/24 00:15:40;;;;;;;3.17;2.55;;;;;;;21.74;79.67;101759.44;6248298;28;20239;-68
2023/08/24 00:19:01;;;;;;;5.05;1.90;;;;;;;21.65;79.55;101760.56;6256078;28;20234;-68
2023/08/24 00:22:23;;;;;;;2.40;2.13;;;;;;;21.48;79.90;101753.53;6231227;28;20315;-68
2023/08/24 00:25:44;;;;;;;2.53;1.83;;;;;;;21.51;80.08;101750.38;6233382;28;20230;-69
2023/08/24 00:29:06;;;;;;;3.92;2.05;;;;;;;21.56;79.93;101745.22;6240961;28;20239;-69
2023/08/24 00:32:27;;;;;;;3.15;2.03;;;;;;;21.59;79.84;101747.56;6216105;28;20227;-69
2023/08/24 00:35:48;;;;;;;2.33;1.45;;;;;;;21.54;79.76;101747.28;6252265;28;20319;-69
2023/08/24 00:39:11;;;;;;;2.47;2.28;;;;;;;21.64;79.75;101749.75;6261112;28;20231;-68
2023/08/24 00:42:32;;;;;;;3.78;1.80;;;;;;;21.71;79.36;101747.97;6266435;28;20234;-68
2023/08/24 00:45:57;;;;;;;2.50;1.80;;;;;;;21.65;79.39;101744.09;6263622;28;20231;-68
2023/08/24 00:49:17;;;;;;;2.40;1.58;;;;;;;21.57;79.50;101732.34;6260025;28;20497;-68
2023/08/24 00:52:40;;;;;;;2.72;2.03;;;;;;;21.53;79.52;101737.34;6237105;28;20228;-67
2023/08/24 00:56:03;;;;;;;4.40;1.77;;;;;;;21.48;79.73;101740.66;6260035;28;20616;-68
2023/08/24 00:59:25;;;;;;;1.88;1.42;;;;;;;21.54;79.75;101740.94;6250634;28;20668;-67
2023/08/24 01:02:45;;;;;;;2.85;1.42;;;;;;;21.60;79.74;101745.69;6221351;28;20333;-68
2023/08/24 01:06:07;;;;;;;2.50;1.50;;;;;;;21.49;80.27;101747.84;6237991;28;20283;-69
2023/08/24 01:09:28;;;;;;;5.93;1.60;;;;;;;21.48;80.31;101754.38;6246955;28;20235;-68
2023/08/24 01:13:08;;;;;;;2.05;1.77;;;;;;;21.47;80.08;101760.03;6228092;28;20228;-68
2023/08/24 01:16:31;;;;;;;1.60;1.45;;;;;;;21.45;80.27;101762.09;6232156;28;20259;-68
2023/08/24 01:19:55;;;;;;;3.40;1.77;;;;;;;21.35;80.68;101759.63;6242136;28;20248;-68
2023/08/24 01:23:29;;;;;;;2.92;1.25;;;;;;;21.36;80.91;101768.72;6210397;28;20567;-68
2023/08/24 01:26:55;;;;;;;2.35;1.80;;;;;;;21.32;80.63;101770.97;6226449;28;20881;-68
2023/08/24 01:30:16;;;;;;;5.18;1.80;;;;;;;21.38;80.79;101774.88;6244275;28;20227;-67
2023/08/24 01:33:37;;;;;;;2.67;1.60;;;;;;;21.21;81.05;101776.91;6227337;28;21842;-68
2023/08/24 01:36:58;;;;;;;1.88;1.60;;;;;;;21.21;81.24;101770.56;6216859;28;20235;-67
2023/08/24 01:40:27;;;;;;;3.80;2.38;;;;;;;21.19;81.63;101764.41;6243920;28;20609;-67
2023/08/24 01:43:53;;;;;;;5.25;2.20;;;;;;;21.01;81.84;101769.28;6251060;28;20703;-68
2023/08/24 01:47:14;;;;;;;3.00;1.77;;;;;;;20.96;82.22;101771.75;6224794;28;20264;-68
2023/08/24 01:50:36;;;;;;;5.20;2.33;;;;;;;21.01;82.59;101761.91;6240610;28;20239;-68
2023/08/24 01:53:59;;;;;;;4.90;2.63;;;;;;;21.12;82.51;101763.41;6230009;28;20508;-67
2023/08/24 01:57:21;;;;;;;2.67;2.00;;;;;;;21.04;82.53;101760.75;6219970;28;20639;-68
2023/08/24 02:00:43;;;;;;;9.13;2.53;;;;;;;20.97;82.81;101763.31;6236616;28;21443;-67
2023/08/24 02:04:04;;;;;;;4.03;2.63;;;;;;;20.96;83.12;101752.53;6238009;28;20243;-68
2023/08/24 02:07:25;;;;;;;5.03;2.38;;;;;;;20.89;83.35;101751.56;6239497;28;20230;-67
2023/08/24 02:10:46;;;;;;;5.57;2.42;;;;;;;20.78;83.85;101752.00;6246635;28;20490;-68
2023/08/24 02:14:07;;;;;;;2.63;2.40;;;;;;;20.84;83.74;101752.09;6242521;28;20255;-67
2023/08/24 02:17:35;;;;;;;2.97;2.42;;;;;;;20.77;84.18;101739.31;6192616;28;20319;-68
2023/08/24 02:20:56;;;;;;;5.10;2.50;;;;;;;20.70;84.52;101745.50;6240665;28;20359;-68
2023/08/24 02:24:17;;;;;;;3.63;3.30;;;;;;;20.78;84.50;101735.53;6246981;28;20866;-68
2023/08/24 02:27:38;;;;;;;7.35;3.22;;;;;;;20.71;84.64;101735.41;6203055;28;20245;-67
2023/08/24 02:31:01;;;;;;;3.72;3.22;;;;;;;20.77;84.55;101733.81;6236539;28;20227;-68
2023/08/24 02:34:24;;;;;;;2.83;2.40;;;;;;;20.67;85.05;101729.41;6246720;28;20228;-67
2023/08/24 02:37:45;;;;;;;3.15;2.85;;;;;;;20.63;85.29;101743.69;6233175;28;20833;-68
2023/08/24 02:41:10;;;;;;;4.80;3.55;;;;;;;20.66;85.32;101735.94;6228706;28;20252;-68
2023/08/24 02:44:34;;;;;;;6.03;3.90;;;;;;;20.62;85.72;101729.13;6240341;28;20223;-68
2023/08/24 02:47:55;;;;;;;4.85;3.78;;;;;;;20.73;85.65;101736.91;6237361;28;20264;-68
2023/08/24 02:51:17;;;;;;;6.10;5.03;;;;;;;20.67;85.91;101723.09;6235827;28;20227;-68
2023/08/24 02:54:38;;;;;;;6.35;5.10;;;;;;;20.65;85.87;101726.00;6237102;28;20508;-68
2023/08/24 02:57:59;;;;;;;9.98;7.38;;;;;;;20.56;86.12;101721.63;6232762;28;20269;-67
2023/08/24 03:01:20;;;;;;;8.45;6.55;;;;;;;20.53;86.45;101727.47;6219120;28;20231;-69
2023/08/24 03:04:41;;;;;;;8.63;6.45;;;;;;;20.38;86.62;101726.50;6219778;28;20656;-68
2023/08/24 03:08:05;;;;;;;7.53;5.20;;;;;;;20.37;86.98;101726.69;6213758;28;20239;-68
2023/08/24 03:11:26;;;;;;;7.05;5.05;;;;;;;20.26;87.51;101727.94;6203887;28;20228;-68
2023/08/24 03:14:46;;;;;;;6.28;4.03;;;;;;;20.30;87.87;101725.69;6228576;28;20236;-68
2023/08/24 03:18:08;;;;;;;5.28;4.78;;;;;;;20.26;88.18;101725.19;6230952;28;20235;-68
2023/08/24 03:21:28;;;;;;;31.40;28.08;;;;;;;20.24;88.13;101724.53;6222878;28;20228;-68
2023/08/24 03:24:50;;;;;;;8.60;7.55;;;;;;;20.27;88.28;101715.97;6216350;28;20236;-68
2023/08/24 03:28:12;;;;;;;7.22;5.78;;;;;;;20.22;88.71;101723.00;6231960;28;20239;-69
2023/08/24 03:31:33;;;;;;;5.13;4.53;;;;;;;20.17;89.03;101718.00;6220042;28;20231;-68
2023/08/24 03:34:59;;;;;;;10.82;6.63;;;;;;;20.21;88.64;101718.56;6217423;28;20940;-68
2023/08/24 03:38:19;;;;;;;9.10;4.90;;;;;;;20.21;88.67;101722.16;6226660;28;20255;-68
2023/08/24 03:41:42;;;;;;;8.50;4.95;;;;;;;20.06;89.11;101718.41;6228607;28;20236;-68
2023/08/24 03:45:04;;;;;;;5.28;4.28;;;;;;;20.11;89.02;101718.72;6226893;28;20236;-69
2023/08/24 03:48:26;;;;;;;6.53;5.50;;;;;;;19.95;89.42;101710.59;6212607;28;20240;-68
2023/08/24 03:51:47;;;;;;;8.43;5.45;;;;;;;20.04;89.58;101712.28;6218284;28;20858;-68
2023/08/24 03:55:09;;;;;;;7.25;6.30;;;;;;;20.00;89.56;101710.06;6228176;28;20231;-69
2023/08/24 03:58:31;;;;;;;6.82;3.80;;;;;;;20.03;89.94;101712.41;6239723;28;20240;-68
2023/08/24 04:01:54;;;;;;;5.38;4.88;;;;;;;20.02;89.92;101716.22;6216274;28;20227;-68
2023/08/24 04:05:15;;;;;;;5.82;4.82;;;;;;;20.07;89.62;101714.63;6234230;28;20271;-68
2023/08/24 04:08:36;;;;;;;9.07;8.15;;;;;;;20.12;89.30;101717.72;6210602;28;20240;-68
2023/08/24 04:11:57;;;;;;;12.98;11.68;;;;;;;20.05;89.27;101719.44;6240144;28;20248;-68
2023/08/24 04:15:19;;;;;;;9.93;9.02;;;;;;;20.01;89.20;101709.88;6238860;28;20621;-67
2023/08/24 04:18:41;;;;;;;19.05;11.23;;;;;;;20.03;89.10;101706.94;6227850;28;20712;-69
2023/08/24 04:22:02;;;;;;;15.00;12.15;;;;;;;20.14;88.91;101709.31;6220632;28;20542;-68
2023/08/24 04:25:23;;;;;;;7.85;7.05;;;;;;;20.18;88.78;101711.53;6248863;28;20310;-69
2023/08/24 04:28:44;;;;;;;8.32;7.53;;;;;;;20.14;88.64;101699.22;6215395;28;20239;-68
2023/08/24 04:32:08;;;;;;;7.90;6.80;;;;;;;20.16;88.26;101704.50;6225052;28;20235;-68
2023/08/24 04:35:28;;;;;;;10.93;5.78;;;;;;;20.03;88.68;101709.69;6237750;28;20633;-67
2023/08/24 04:38:49;;;;;;;6.68;5.63;;;;;;;20.00;89.01;101710.91;6235010;28;20254;-68
2023/08/24 04:42:10;;;;;;;6.43;5.15;;;;;;;20.16;88.83;101708.09;6221623;28;20340;-68
2023/08/24 04:45:31;;;;;;;5.30;4.80;;;;;;;20.20;88.48;101712.22;6230137;28;20600;-68
2023/08/24 04:48:54;;;;;;;7.03;5.10;;;;;;;20.22;88.34;101710.16;6222609;28;20259;-69
2023/08/24 04:52:15;;;;;;;6.38;5.00;;;;;;;20.14;88.11;101720.25;6227478;28;20239;-68
2023/08/24 04:55:35;;;;;;;5.50;4.68;;;;;;;20.15;88.09;101736.50;6229739;28;20224;-68
2023/08/24 04:58:57;;;;;;;6.53;5.28;;;;;;;20.10;88.27;101733.47;6207470;28;20228;-68
2023/08/24 05:02:18;;;;;;;9.25;8.43;;;;;;;20.04;88.27;101725.09;6222387;28;22092;-68
2023/08/24 05:05:41;;;;;;;11.23;10.18;;;;;;;19.86;88.74;101728.91;6214008;28;20322;-69
2023/08/24 05:09:02;;;;;;;7.13;6.43;;;;;;;20.03;88.37;101732.44;6221700;28;20232;-68
2023/08/24 05:12:23;;;;;;;6.45;5.85;;;;;;;19.98;88.82;101732.16;6230580;28;20236;-67
2023/08/24 05:15:44;;;;;;;4.90;4.40;;;;;;;20.06;88.75;101729.38;6227041;28;20239;-67
2023/08/24 05:19:05;;;;;;;4.40;4.00;;;;;;;20.11;88.38;101737.06;6214686;28;20273;-66
2023/08/24 05:22:27;;;;;;;4.40;3.65;;;;;;;20.18;88.40;101744.38;6236932;28;20338;-68
2023/08/24 05:25:48;;;;;;;4.68;3.58;;;;;;;20.46;88.06;101748.38;6235738;28;20330;-67
2023/08/24 05:29:09;;;;;;;5.10;3.72;;;;;;;20.51;86.95;101745.97;6227949;28;20228;-67
2023/08/24 05:32:30;;;;;;;2.85;2.55;;;;;;;20.67;86.01;101740.38;6230049;28;20235;-68
2023/08/24 05:35:52;;;;;;;6.45;3.75;;;;;;;20.63;85.32;101744.53;6227194;28;20742;-68
2023/08/24 05:39:14;;;;;;;4.22;3.85;;;;;;;20.70;85.20;101745.50;6220689;28;21617;-67
2023/08/24 05:42:36;;;;;;;5.85;3.85;;;;;;;20.86;84.28;101751.94;6230301;28;20231;-67
2023/08/24 05:45:57;;;;;;;7.38;3.88;;;;;;;20.85;84.44;101747.47;6240219;28;20239;-66
2023/08/24 05:49:18;;;;;;;4.25;3.28;;;;;;;20.96;83.91;101747.06;6224228;28;20229;-66
2023/08/24 05:52:39;;;;;;;6.75;3.60;;;;;;;20.80;83.67;101750.75;6227906;28;20402;-67
2023/08/24 05:56:01;;;;;;;5.45;3.03;;;;;;;20.78;83.19;101746.50;6232130;28;20545;-68
2023/08/24 05:59:23;;;;;;;3.65;2.53;;;;;;;20.69;83.20;101734.75;6222089;28;20708;-68
2023/08/24 06:02:44;;;;;;;12.98;5.07;;;;;;;20.71;83.01;101738.97;6240451;28;20232;-68
2023/08/24 06:06:05;;;;;;;20.67;6.28;;;;;;;20.88;82.69;101742.47;6248210;28;20236;-69
2023/08/24 06:09:26;;;;;;;9.98;4.40;;;;;;;21.00;82.33;101740.19;6244815;28;20243;-69
2023/08/24 06:12:48;;;;;;;6.50;3.53;;;;;;;21.09;82.22;101739.13;6234193;28;20236;-68
2023/08/24 06:16:09;;;;;;;3.55;2.80;;;;;;;21.10;81.96;101749.03;6233020;28;20224;-69
2023/08/24 06:19:30;;;;;;;2.95;2.20;;;;;;;21.09;81.48;101734.47;6245638;28;20239;-68
2023/08/24 06:22:51;;;;;;;8.23;2.42;;;;;;;21.18;81.47;101738.00;6220327;28;20278;-68
2023/08/24 06:26:12;;;;;;;4.88;2.65;;;;;;;21.38;81.10;101714.53;6241260;28;20243;-68
2023/08/24 06:29:35;;;;;;;1.88;1.77;;;;;;;21.60;80.16;101715.47;6226651;28;20231;-69
2023/08/24 06:32:55;;;;;;;6.90;3.10;;;;;;;21.59;79.72;101706.38;6249040;28;20410;-67
2023/08/24 06:36:16;;;;;;;3.10;2.40;;;;;;;21.67;79.26;101697.25;6246029;28;20853;-68
2023/08/24 06:39:37;;;;;;;4.00;2.45;;;;;;;21.85;78.99;101693.13;6226967;28;20255;-68
2023/08/24 06:42:58;;;;;;;3.63;1.83;;;;;;;21.88;78.20;101695.47;6224763;28;20234;-67
2023/08/24 06:46:21;;;;;;;3.70;1.75;;;;;;;22.00;77.19;101704.09;6237699;28;20236;-68
2023/08/24 06:49:42;;;;;;;6.47;2.53;;;;;;;22.06;76.62;101697.84;6232521;28;20236;-69
2023/08/24 06:53:04;;;;;;;5.40;2.58;;;;;;;21.93;76.83;101701.25;6230559;28;20232;-69
2023/08/24 06:56:25;;;;;;;3.08;1.48;;;;;;;22.17;76.36;101694.59;6229694;28;20244;-68
2023/08/24 06:59:46;;;;;;;3.40;1.90;;;;;;;22.12;75.14;101691.56;6235092;28;20223;-68
2023/08/24 07:03:08;;;;;;;2.22;1.50;;;;;;;22.12;74.88;101678.69;6228507;28;20243;-68
2023/08/24 07:06:29;;;;;;;4.35;1.73;;;;;;;21.49;75.26;101679.22;6231299;28;20915;-69
2023/08/24 07:09:50;;;;;;;5.00;1.70;;;;;;;21.46;76.40;101685.09;6241534;28;20239;-70
2023/08/24 07:13:11;;;;;;;6.65;2.95;;;;;;;21.77;75.84;101671.22;6199994;28;20241;-74
2023/08/24 07:16:32;;;;;;;2.25;1.80;;;;;;;22.01;75.70;101668.19;6195219;28;20228;-73
2023/08/24 07:19:54;;;;;;;5.55;2.33;;;;;;;22.18;75.56;101671.56;6212518;28;20224;-72
2023/08/24 07:23:15;;;;;;;6.63;1.95;;;;;;;22.20;74.01;101670.34;6205501;28;20322;-73
2023/08/24 07:26:36;;;;;;;1.75;1.50;;;;;;;22.13;73.82;101680.38;6211471;28;20236;-72
2023/08/24 07:29:57;;;;;;;1.40;1.30;;;;;;;22.46;73.67;101680.81;6228348;28;21746;-74
2023/08/24 07:33:21;;;;;;;2.60;1.85;;;;;;;22.74;72.74;101686.41;6214076;28;20243;-76
2023/08/24 07:36:44;;;;;;;4.32;3.97;;;;;;;22.98;71.35;101683.28;6213469;28;20251;-72
2023/08/24 07:40:08;;;;;;;5.57;4.45;;;;;;;22.86;71.64;101677.44;6227828;28;20310;-69
2023/08/24 07:43:30;;;;;;;10.93;5.65;;;;;;;22.98;70.79;101675.91;6229489;28;20240;-70
2023/08/24 07:46:51;;;;;;;4.22;3.80;;;;;;;22.79;71.06;101678.44;6214387;28;20877;-72
2023/08/24 07:50:12;;;;;;;2.33;1.73;;;;;;;22.95;70.96;101675.41;6245095;28;20228;-71
2023/08/24 07:53:35;;;;;;;2.40;2.20;;;;;;;22.33;70.43;101664.16;6237077;28;20232;-72
2023/08/24 07:56:55;;;;;;;2.55;1.80;;;;;;;22.59;70.52;101680.13;6209610;28;21372;-72
2023/08/24 08:00:17;;;;;;;4.00;2.80;;;;;;;22.44;71.23;101677.41;6246759;28;20232;-74
2023/08/24 08:03:37;;;;;;;9.90;2.20;;;;;;;22.86;69.62;101674.69;6238579;28;20314;-76
2023/08/24 08:07:00;;;;;;;2.97;2.33;;;;;;;23.65;68.58;101678.13;6232655;28;20996;-72
2023/08/24 08:10:23;;;;;;;2.35;2.15;;;;;;;22.59;67.75;101669.13;6238525;28;20242;-71
2023/08/24 08:13:44;;;;;;;4.57;2.35;;;;;;;22.74;68.62;101658.91;6243163;28;20247;-68
2023/08/24 08:17:05;;;;;;;2.17;1.58;;;;;;;22.98;67.77;101658.53;6250774;28;20324;-70
2023/08/24 08:20:26;;;;;;;2.75;1.60;;;;;;;23.17;67.53;101646.00;6253893;28;20239;-69
2023/08/24 08:23:47;;;;;;;5.75;2.25;;;;;;;23.35;66.41;101649.13;6249389;28;20227;-69
2023/08/24 08:27:10;;;;;;;2.00;1.58;;;;;;;22.91;68.44;101646.59;6232537;28;20236;-69
2023/08/24 08:30:31;;;;;;;2.45;1.60;;;;;;;23.28;68.42;101642.69;6240756;28;20235;-69
2023/08/24 08:33:52;;;;;;;5.47;2.03;;;;;;;23.43;67.41;101644.31;6243629;28;20244;-70
2023/08/24 08:37:13;;;;;;;1.90;1.60;;;;;;;23.88;66.01;101631.03;6229730;28;20547;-69
2023/08/24 08:40:38;;;;;;;4.40;1.33;;;;;;;24.05;65.08;101636.03;6246323;28;20248;-69
2023/08/24 08:44:02;;;;;;;2.72;1.52;;;;;;;23.77;64.50;101630.56;6228116;28;20232;-70
2023/08/24 08:47:24;;;;;;;2.28;1.80;;;;;;;23.37;64.85;101647.88;6209527;28;21512;-70
2023/08/24 08:50:47;;;;;;;2.58;1.55;;;;;;;23.48;65.51;101640.97;6247047;28;20360;-68
2023/08/24 08:54:08;;;;;;;3.50;1.55;;;;;;;23.36;64.66;101637.94;6224838;28;21067;-69
2023/08/24 08:57:29;;;;;;;4.90;1.83;;;;;;;23.58;64.09;101633.19;6230788;28;20231;-69
2023/08/24 09:00:52;;;;;;;3.13;1.40;;;;;;;23.78;63.58;101634.16;6232159;28;20255;-69
2023/08/24 09:04:13;;;;;;;2.50;1.42;;;;;;;23.64;62.89;101633.22;6228396;28;20322;-69
2023/08/24 09:07:37;;;;;;;2.55;1.70;;;;;;;23.12;63.95;101630.06;6243628;28;20235;-68
2023/08/24 09:11:02;;;;;;;2.08;1.10;;;;;;;22.60;64.92;101624.94;6244202;28;20664;-69
2023/08/24 09:14:23;;;;;;;3.22;1.70;;;;;;;22.71;65.93;101624.44;6237036;28;20562;-69
2023/08/24 09:17:45;;;;;;;2.97;1.30;;;;;;;23.11;66.19;101631.13;6234325;28;20228;-68
2023/08/24 09:21:10;;;;;;;3.10;1.70;;;;;;;23.19;64.70;101635.63;6248705;28;20252;-68
2023/08/24 09:24:31;;;;;;;1.83;1.40;;;;;;;23.78;64.68;101642.44;6228426;28;20228;-69
2023/08/24 09:27:58;;;;;;;2.83;2.42;;;;;;;23.50;64.15;101650.72;6244068;28;20235;-69
2023/08/24 09:31:20;;;;;;;8.65;6.97;;;;;;;24.52;63.31;101648.88;6248265;28;22646;-69
2023/08/24 09:34:42;;;;;;;2.67;1.40;;;;;;;23.30;64.90;101644.16;6232922;28;20244;-68
2023/08/24 09:38:16;;;;;;;3.47;1.55;;;;;;;23.41;66.04;101645.56;6232700;28;20231;-69
2023/08/24 09:41:39;;;;;;;3.70;1.90;;;;;;;23.44;65.23;101654.28;6234930;28;20235;-69
2023/08/24 09:45:04;;;;;;;3.08;1.52;;;;;;;24.08;64.77;101654.88;6246830;28;20232;-69
2023/08/24 09:48:25;;;;;;;4.55;1.58;;;;;;;24.00;65.62;101643.16;6222171;28;20231;-68
2023/08/24 09:51:50;;;;;;;4.13;1.60;;;;;;;24.67;65.72;101626.66;6232578;28;20243;-68
2023/08/24 09:55:14;;;;;;;2.45;1.45;;;;;;;24.56;64.27;101615.19;6236462;28;20897;-68
2023/08/24 09:58:35;;;;;;;4.30;2.17;;;;;;;24.39;64.40;101616.63;6242522;28;20227;-68
2023/08/24 10:01:57;;;;;;;3.83;1.92;;;;;;;24.74;63.54;101609.06;6227228;28;20616;-68
2023/08/24 10:05:21;;;;;;;2.60;1.38;;;;;;;25.26;62.05;101608.22;6214709;28;20243;-66
2023/08/24 10:08:48;;;;;;;5.18;1.67;;;;;;;24.38;63.66;101603.91;6218694;28;20800;-68
2023/08/24 10:12:10;;;;;;;4.35;2.35;;;;;;;24.69;63.41;101594.19;6226348;28;20236;-67
2023/08/24 10:15:32;;;;;;;4.88;1.65;;;;;;;25.50;62.13;101590.16;6231893;28;20761;-80
2023/08/24 10:18:54;;;;;;;3.15;2.08;;;;;;;26.20;60.52;101589.28;6206330;28;20233;-76
2023/08/24 10:22:14;;;;;;;4.30;2.00;;;;;;;26.19;59.27;101591.19;6192972;28;20232;-79
2023/08/24 10:25:38;;;;;;;2.67;2.47;;;;;;;26.19;59.38;101582.03;6230862;28;20227;-77
2023/08/24 10:28:59;;;;;;;2.00;1.88;;;;;;;26.70;59.34;101591.91;6227254;28;20224;-68
2023/08/24 10:32:22;;;;;;;3.72;2.15;;;;;;;26.80;58.99;101569.31;6224412;28;20343;-70
2023/08/24 10:35:43;;;;;;;4.72;2.70;;;;;;;27.04;58.31;101546.28;6237398;28;20232;-69
2023/08/24 10:39:06;;;;;;;4.13;2.22;;;;;;;27.01;56.79;101540.38;6199984;28;20236;-68
2023/08/24 10:42:28;;;;;;;3.97;2.38;;;;;;;26.48;56.52;101529.72;6198412;28;20313;-68
2023/08/24 10:45:59;;;;;;;3.35;3.08;;;;;;;27.01;56.28;101532.06;6221504;28;20333;-68
2023/08/24 10:49:20;;;;;;;3.00;1.92;;;;;;;26.72;56.88;101534.44;6201844;28;20513;-68
2023/08/24 10:52:44;;;;;;;2.42;2.00;;;;;;;26.80;56.55;101541.63;6229729;28;20255;-68
2023/08/24 10:56:12;;;;;;;3.13;2.28;;;;;;;27.59;56.24;101530.59;6237461;28;20251;-67
2023/08/24 10:59:38;;;;;;;2.75;2.10;;;;;;;27.01;55.19;101530.16;6241582;28;21998;-67
2023/08/24 11:02:59;;;;;;;2.22;2.03;;;;;;;27.18;57.68;101531.22;6224629;28;20225;-68
2023/08/24 11:06:21;;;;;;;2.85;1.73;;;;;;;28.92;53.39;101530.13;6235673;28;20692;-68
2023/08/24 11:09:46;;;;;;;9.20;2.05;;;;;;;29.77;51.65;101520.16;6228926;28;20231;-69
2023/08/24 11:13:13;;;;;;;2.55;1.92;;;;;;;29.58;51.61;101515.00;6226583;28;20713;-67
2023/08/24 11:16:42;;;;;;;3.75;2.28;;;;;;;29.07;50.97;101513.00;6230278;28;20804;-67
2023/08/24 11:20:05;;;;;;;4.32;2.35;;;;;;;28.45;53.73;101498.66;6232737;28;20231;-66
2023/08/24 11:23:26;;;;;;;2.58;2.33;;;;;;;26.47;56.02;101486.53;6240664;28;20321;-67
2023/08/24 11:26:48;;;;;;;5.53;2.85;;;;;;;27.55;54.81;101474.81;6233566;28;20256;-67
2023/08/24 11:30:10;;;;;;;3.72;3.28;;;;;;;29.23;53.37;101467.00;6232057;28;20556;-68
2023/08/24 11:33:33;;;;;;;4.03;2.42;;;;;;;29.67;51.22;101475.44;6231843;28;20259;-67
2023/08/24 11:36:54;;;;;;;2.78;1.95;;;;;;;28.93;50.50;101481.00;6228404;28;20515;-68
2023/08/24 11:40:18;;;;;;;1.75;1.65;;;;;;;29.38;51.52;101482.06;6234083;28;20255;-68
2023/08/24 11:43:39;;;;;;;2.67;2.33;;;;;;;29.74;50.08;101487.31;6214405;28;20602;-68
2023/08/24 11:47:00;;;;;;;4.10;2.25;;;;;;;29.13;49.64;101473.97;6227725;28;20248;-67
2023/08/24 11:50:24;;;;;;;3.25;2.80;;;;;;;30.34;49.14;101453.38;6228777;28;20318;-67
2023/08/24 11:53:47;;;;;;;2.33;2.03;;;;;;;32.38;45.00;101441.63;6239377;28;20285;-68
2023/08/24 11:57:08;;;;;;;3.10;2.30;;;;;;;32.92;42.97;101436.72;6226048;28;20236;-67
2023/08/24 12:00:30;;;;;;;2.53;1.85;;;;;;;33.03;43.38;101430.97;6233279;28;20242;-68
2023/08/24 12:03:51;;;;;;;3.17;1.85;;;;;;;33.83;42.78;101410.06;6245498;28;20699;-66
2023/08/24 12:07:13;;;;;;;6.38;2.85;;;;;;;33.38;41.56;101407.09;6232700;28;20247;-66
2023/08/24 12:10:35;;;;;;;2.20;1.98;;;;;;;33.03;43.28;101393.78;6212454;28;20764;-67
2023/08/24 12:13:56;;;;;;;3.00;1.70;;;;;;;33.19;43.54;101387.16;6201843;28;20232;-67
2023/08/24 12:17:18;;;;;;;4.55;2.60;;;;;;;32.12;44.51;101381.97;6227161;28;20233;-67
2023/08/24 12:20:40;;;;;;;6.03;2.60;;;;;;;33.98;42.89;101384.03;6235993;28;20613;-68
2023/08/24 12:24:05;;;;;;;3.97;2.15;;;;;;;36.09;40.46;101389.03;6225360;28;20239;-68
2023/08/24 12:27:27;;;;;;;2.00;1.80;;;;;;;36.65;38.27;101393.03;6229297;28;20232;-68
2023/08/24 12:30:49;;;;;;;3.90;2.00;;;;;;;35.84;38.60;101395.63;6243042;28;20534;-69
2023/08/24 12:34:10;;;;;;;4.32;2.40;;;;;;;35.55;38.80;101386.28;6226262;28;20334;-68
2023/08/24 12:37:31;;;;;;;1.70;1.60;;;;;;;35.91;38.66;101387.72;6228975;28;20224;-68
2023/08/24 12:40:54;;;;;;;5.82;2.92;;;;;;;33.50;41.19;101386.22;6239717;28;20228;-67
2023/08/24 12:44:15;;;;;;;3.20;2.53;;;;;;;33.82;41.79;101384.00;6208020;28;20827;-67
2023/08/24 12:47:37;;;;;;;4.22;2.13;;;;;;;32.49;42.37;101390.38;6235154;28;20235;-68
2023/08/24 12:50:58;;;;;;;8.63;2.03;;;;;;;30.23;46.80;101373.59;6252473;28;20232;-67
2023/08/24 12:54:24;;;;;;;3.15;1.92;;;;;;;30.62;46.54;101337.19;6228260;28;20232;-68
2023/08/24 12:57:46;;;;;;;2.90;1.83;;;;;;;32.01;45.16;101323.53;6238967;28;20235;-69
2023/08/24 13:01:07;;;;;;;1.85;1.60;;;;;;;32.73;42.98;101315.38;6247164;28;20255;-66
2023/08/24 13:04:29;;;;;;;5.18;2.00;;;;;;;32.62;43.21;101300.53;6226910;28;20415;-67
2023/08/24 13:07:50;;;;;;;6.40;2.00;;;;;;;34.65;40.42;101305.31;6232899;28;20232;-66
2023/08/24 13:11:11;;;;;;;1.70;1.60;;;;;;;33.08;41.37;101296.00;6245126;28;20267;-68
2023/08/24 13:14:34;;;;;;;2.30;1.67;;;;;;;33.66;41.23;101300.34;6233467;28;20228;-67
2023/08/24 13:17:55;;;;;;;4.03;1.83;;;;;;;33.59;40.96;101297.81;6220014;28;20627;-67
2023/08/24 13:21:16;;;;;;;3.78;2.50;;;;;;;34.85;39.85;101310.84;6250594;28;20231;-68
2023/08/24 13:24:38;;;;;;;3.38;2.97;;;;;;;35.86;38.67;101299.91;6252800;28;20240;-66
2023/08/24 13:27:59;;;;;;;2.35;2.17;;;;;;;36.75;38.21;101305.78;6233669;28;20236;-68
2023/08/24 13:31:21;;;;;;;1.50;1.40;;;;;;;36.39;38.33;101303.63;6249657;28;20255;-69
2023/08/24 13:34:43;;;;;;;1.55;1.27;;;;;;;33.60;40.71;101296.72;6245858;28;20247;-68
2023/08/24 13:38:04;;;;;;;2.53;1.30;;;;;;;33.59;43.02;101295.00;6231251;28;20228;-68
2023/08/24 13:41:25;;;;;;;4.75;2.13;;;;;;;33.06;42.68;101301.03;6236831;28;20228;-67
2023/08/24 13:44:46;;;;;;;2.13;1.75;;;;;;;32.46;44.77;101295.09;6242275;28;20228;-70
2023/08/24 13:48:08;;;;;;;3.65;1.52;;;;;;;32.15;45.27;101282.88;6224773;28;20236;-68
2023/08/24 13:51:29;;;;;;;1.77;1.60;;;;;;;31.56;45.29;101289.63;6236857;28;20232;-69
2023/08/24 13:54:51;;;;;;;2.70;1.60;;;;;;;30.56;46.43;101299.25;6229255;28;20228;-68
2023/08/24 13:58:12;;;;;;;2.63;1.80;;;;;;;30.85;46.72;101287.94;6229913;28;20244;-68
2023/08/24 14:01:33;;;;;;;2.10;1.75;;;;;;;30.49;47.49;101273.56;6239387;28;20314;-71
2023/08/24 14:04:55;;;;;;;1.88;1.75;;;;;;;30.71;48.99;101263.25;6217349;28;20236;-69
2023/08/24 14:08:16;;;;;;;2.67;2.35;;;;;;;30.13;48.97;101262.97;6218435;28;21198;-69
2023/08/24 14:11:37;;;;;;;3.38;1.60;;;;;;;29.75;49.09;101255.41;6226268;28;20231;-68
2023/08/24 14:14:58;;;;;;;2.80;1.52;;;;;;;29.13;50.99;101262.03;6243180;28;20258;-68
2023/08/24 14:18:19;;;;;;;1.63;1.40;;;;;;;29.69;50.31;101261.97;6190230;28;20237;-69
2023/08/24 14:21:42;;;;;;;2.58;1.73;;;;;;;30.69;48.35;101259.91;6221730;28;20245;-70
2023/08/24 14:25:03;;;;;;;1.92;1.63;;;;;;;30.78;47.82;101255.56;6240260;28;20240;-69
2023/08/24 14:28:24;;;;;;;4.20;1.58;;;;;;;30.22;48.67;101244.75;6233187;28;20232;-71
2023/08/24 14:31:45;;;;;;;3.75;2.05;;;;;;;30.29;48.56;101244.56;6231375;28;20227;-70
2023/08/24 14:35:06;;;;;;;2.50;1.60;;;;;;;29.58;50.00;101242.59;6242176;28;20247;-70
2023/08/24 14:38:28;;;;;;;1.55;1.45;;;;;;;29.41;50.89;101236.19;6227666;28;20260;-70
2023/08/24 14:41:49;;;;;;;1.63;1.52;;;;;;;29.38;51.25;101231.97;6225852;28;21345;-70
2023/08/24 14:45:11;;;;;;;3.08;1.52;;;;;;;29.36;51.50;101233.28;6234571;28;20240;-71
2023/08/24 14:48:32;;;;;;;2.67;1.55;;;;;;;29.28;51.29;101233.72;6226408;28;20316;-70
2023/08/24 14:51:53;;;;;;;2.35;1.73;;;;;;;28.27;52.42;101224.13;6234481;28;20227;-69
2023/08/24 14:55:18;;;;;;;2.75;2.13;;;;;;;27.85;54.12;101222.56;6209306;28;20311;-70
2023/08/24 14:58:38;;;;;;;2.92;2.08;;;;;;;28.08;53.79;101214.25;6239231;28;20242;-69
2023/08/24 15:02:00;;;;;;;2.60;1.77;;;;;;;28.42;52.55;101218.06;6234823;28;20231;-70
2023/08/24 15:05:21;;;;;;;2.22;1.83;;;;;;;27.63;53.92;101211.25;6245725;28;20231;-70
2023/08/24 15:08:44;;;;;;;2.90;1.83;;;;;;;27.88;54.50;101210.16;6238322;28;20231;-70
2023/08/24 15:12:06;;;;;;;1.40;1.30;;;;;;;28.21;53.28;101211.22;6229549;28;20837;-70
2023/08/24 15:15:27;;;;;;;1.65;1.55;;;;;;;27.64;54.24;101215.69;6243909;28;20236;-68
2023/08/24 15:18:48;;;;;;;4.10;2.00;;;;;;;27.86;54.48;101204.00;6218548;28;20240;-69
2023/08/24 15:22:09;;;;;;;3.17;1.88;;;;;;;27.67;55.01;101214.38;6221553;28;20228;-68
2023/08/24 15:25:30;;;;;;;3.22;1.83;;;;;;;28.13;54.31;101211.63;6233748;28;20236;-68
2023/08/24 15:29:14;;;;;;;1.92;1.45;;;;;;;28.47;54.38;101205.13;6241035;28;20235;-68
2023/08/24 15:32:35;;;;;;;3.72;2.10;;;;;;;27.85;54.74;101203.16;6226593;28;20230;-66
2023/08/24 15:35:56;;;;;;;2.42;2.17;;;;;;;27.68;55.27;101197.47;6241082;28;20315;-66
2023/08/24 15:39:17;;;;;;;1.90;1.70;;;;;;;27.54;55.93;101192.41;6242364;28;20240;-67